Relevés horaires Matro (Suisse)


Relevés horaires à Matro - Mercredi 26 Juin 2019
Heure UTC1 Température [°C] Vent [km/h] Hum. [%] Pres.4 [hPa] Visi. [Km] Nébu. [octa] Préc.5 [mm] Cond.
2m. Res. Ros. Dir.2 Vit. Moy. Raf.3
23:00 20.2 20.2 4.1 NNO 16.7 -- 18.5 35 850(-0.1/3h) -- -- -- --
22:00 19.8 19.8 5.8 NNO 14.8 -- 18.5 40 850(0.2/3h) -- -- -- --
21:00 20.3 20.3 4.9 NNO 14.8 -- 24.1 36 850(0.5/3h) -- -- -- --
20:00 20.1 20.1 6.3 NNO 9.3 -- 14.8 41 850(0.5/3h) -- -- -- --
19:00 19.8 19.8 11.3 NNO 13.0 -- 24.1 58 850(0.4/3h) -- -- -- --
18:00 21.6 21.6 8.3 NO 14.8 -- 29.6 42 850(-0.1/3h) -- -- -- --
17:00 22.4 22.4 6.0 NO 16.7 -- 24.1 35 850(-0.3/3h) -- -- -- --
16:00 22.8 22.8 6.8 NO 13.0 -- 25.9 36 850(-0.4/3h) -- -- -- --
15:00 23.0 23.0 5.4 NO 13.0 -- 29.6 32 850(-0.2/3h) -- -- -- --
14:00 23.4 23.4 2.9 NNO 14.8 -- 22.2 26 850(-0.2/3h) -- -- -- --
13:00 23.0 23.0 3.4 NNO 14.8 -- 29.6 28 850(-0.1/3h) -- -- -- --
12:00 23.1 23.1 3.6 NNO 14.8 -- 25.9 28 850(0.3/3h) -- -- -- --
11:00 22.1 22.1 5.0 NO 13.0 -- 20.4 33 850(0.5/3h) -- -- -- --
10:00 21.5 21.5 10.1 NO 3.7 -- 13.0 48 850(0.7/3h) -- -- -- --
09:00 20.6 20.6 9.7 NO 3.7 -- 9.3 50 850(0.7/3h) -- -- -- --
08:00 19.6 19.6 7.3 NNO 5.6 -- 9.3 45 850(0.6/3h) -- -- -- --
07:00 19.5 19.5 6.9 NNO 1.9 -- 7.4 44 850(0.5/3h) -- -- -- --
06:00 18.9 18.9 6.5 NO 5.6 -- 9.3 44 850(0.1/3h) -- -- -- --
05:00 17.7 17.7 9.9 NNO 7.4 -- 9.3 60 850(0.0/3h) -- -- -- --
04:00 16.9 16.9 11.6 NNO 3.7 -- 5.6 71 850(-0.4/3h) -- -- -- --
03:00 16.2 16.2 13.3 NO 5.6 -- 7.4 83 850(-0.4/3h) -- -- -- --
02:00 16.0 16.0 14.2 NNO 5.6 -- 5.6 89 850(-0.3/3h) -- -- -- --
01:00 16.2 16.2 14.2 N 5.6 -- 7.4 88 850(0.0/3h) -- -- -- --
00:00 16.2 16.2 14.2 NNO 7.4 -- 13.0 88 850(0.2/3h) -- -- -- --

1 Coordinated Universal Time. Actuellement il est 06:00 locale et 04:00 UTC.

2 Le vent souffle depuis la direction indiquée vers la direction oposée.

3 Les rafales max. sont disponible 40 min après l'heure du relevé.

4 Pour les stations d'altitude (plus de 600m) le géopotentiel du niveau le plus proche de la pression obligatoire est indiqué.

5 Les stations disposant d'un diffuseur peuvent indiquer "trace". Cela signifie que des précipitations ont touchés le sol mais que la quantité est inférieure à 0.1 mm.

Copyright

Les données affichées sur cette page sont la propriété exclusive de Météo Suisse.

Récapitulatif de la journée
Température [°C] Vent [km/h] Ensoleillement4 [h] Precipitations totale5 [mm] Pression [Hpa]
Min1 Max.2 Moy.3 Max. Min Max.
15.9 23.8 0 29.6 14 h 12 min 0 850.0 850.0

1 Température minimale relevée entre 18:00 UTC la veille et 18:00 UTC le jour donné.

2 Température maximale relevée entre 06:00 UTC le jour donné et 06:00 UTC le lendemain.

3 Vent moyen de la journée basé sur les relevés horaires.

4 Ensoleillement en heures relevé entre 06:00 UTC la veille et 06:00 UTC le jour donné.

5 Précipitations totales tombées entre 06:00 UTC la jour donné et 06:00 UTC le lendemain.

Graphiques horaires